LFLL

Lyon Saint-Exupéry Airport

Lyon, France
TAF LFLL 251100Z 2512/2618 34007KT CAVOK BECMG 2518/2521 VRB02KT BECMG 2610/2612 18005KT
Issued Valid From Valid To
Sep-25 @ 11:00 UTC
(4 hours ago)
Sep-25 @ 12:00 UTC
(3 hours ago)
Sep-26 @ 18:00 UTC
(-1 days ago)
Sep-25 @ 12:00 to Sep-25 @ 18:00
TAF LFLL 251100Z 2512/2618 34007KT CAVOK
Wind Visibility Clouds Conditions
340° at 7 knots 10,000+ meters
  • No significant clouds
Becoming Sep-25 @ 18:00 to Sep-26 @ 10:00
BECMG 2518/2521 VRB02KT
Wind Visibility Clouds Conditions
Variable at 2 knots 10,000+ meters
  • No significant clouds
Becoming Sep-26 @ 10:00 to Sep-26 @ 18:00
BECMG 2610/2612 18005KT
Wind Visibility Clouds Conditions
180° at 5 knots 10,000+ meters
  • No significant clouds
TAF LFLL 251100Z 2512/2618 34007KT CAVOK BECMG 2518/2521 VRB02KT BECMG 2610/2612 18005KT
Issued Sep-25 @ 11:00 UTC
(4 hours ago)
Valid From Sep-25 @ 12:00 UTC
(3 hours ago)
Valid To Sep-26 @ 18:00 UTC
(-1 days ago)
Sep-25 @ 12:00 - Sep-25 @ 18:00
Wind Visibility
340° at 7 knots 10,000+ meters
Clouds
  • No significant clouds
Conditions
Becoming Sep-25 @ 18:00 - Sep-26 @ 10:00
Wind Visibility
Variable at 2 knots 10,000+ meters
Clouds
  • No significant clouds
Conditions
Becoming Sep-26 @ 10:00 - Sep-26 @ 18:00
Wind Visibility
180° at 5 knots 10,000+ meters
Clouds
  • No significant clouds
Conditions